createdAt,value
2023-04-12T00:01:14.923Z,9.32
2023-04-12T00:04:18.269Z,9.32
2023-04-12T00:07:21.299Z,9.42
2023-04-12T00:10:23.277Z,9.39
2023-04-12T00:13:25.098Z,9.27
2023-04-12T00:16:27.170Z,9.34
2023-04-12T00:19:31.040Z,9.12
2023-04-12T00:22:32.859Z,9.30
2023-04-12T00:25:34.653Z,9.33
2023-04-12T00:28:36.374Z,9.01
2023-04-12T00:31:38.185Z,9.43
2023-04-12T00:34:40.063Z,9.30
2023-04-12T00:37:41.842Z,9.27
2023-04-12T00:40:44.177Z,9.28
2023-04-12T00:43:45.872Z,9.20
2023-04-12T00:46:48.842Z,8.99
2023-04-12T00:49:53.492Z,9.08
2023-04-12T00:52:55.721Z,9.09
2023-04-12T00:55:58.586Z,8.88
2023-04-12T00:59:00.549Z,9.06
2023-04-12T01:02:03.285Z,8.95
2023-04-12T01:05:06.049Z,9.02
2023-04-12T01:08:51.378Z,9.10
2023-04-12T01:12:09.031Z,9.07
2023-04-12T01:15:16.875Z,8.91
2023-04-12T01:18:25.454Z,8.88
2023-04-12T01:21:45.301Z,8.85
2023-04-12T01:24:55.982Z,8.96
2023-04-12T01:28:01.472Z,8.90
2023-04-12T01:31:04.228Z,8.97
2023-04-12T01:34:06.300Z,8.97
2023-04-12T01:37:09.697Z,9.00
2023-04-12T01:40:13.619Z,8.99
2023-04-12T01:43:16.385Z,8.94
2023-04-12T01:46:24.765Z,8.71
2023-04-12T01:49:43.698Z,8.99
2023-04-12T01:52:59.382Z,9.07
2023-04-12T01:56:07.210Z,9.07
2023-04-12T01:59:12.185Z,9.16
2023-04-12T02:02:14.364Z,9.11
2023-04-12T02:05:17.811Z,9.19
2023-04-12T02:08:19.709Z,9.29
2023-04-12T02:11:21.410Z,9.27
2023-04-12T02:14:23.203Z,9.20
2023-04-12T02:17:25.195Z,9.34
2023-04-12T02:20:27.474Z,9.35
2023-04-12T02:23:29.306Z,9.32
2023-04-12T02:26:31.100Z,9.23
2023-04-12T02:29:33.644Z,9.16
2023-04-12T02:32:44.583Z,9.24
2023-04-12T02:35:52.859Z,9.01
2023-04-12T02:38:56.313Z,9.29
2023-04-12T02:41:59.462Z,9.26
2023-04-12T02:45:01.442Z,9.26
2023-04-12T02:48:05.434Z,9.29
2023-04-12T02:51:07.732Z,9.29
2023-04-12T02:54:10.479Z,9.33
2023-04-12T02:57:29.323Z,9.32
2023-04-12T03:00:31.447Z,9.30
2023-04-12T03:03:35.643Z,9.32
2023-04-12T03:06:53.809Z,9.31
2023-04-12T03:10:07.375Z,9.30
2023-04-12T03:13:13.828Z,9.31
2023-04-12T03:16:23.646Z,9.35
2023-04-12T03:19:33.046Z,8.97
2023-04-12T03:22:35.036Z,8.56
2023-04-12T03:25:37.477Z,9.23
2023-04-12T03:29:10.729Z,9.18
2023-04-12T03:32:15.851Z,9.14
2023-04-12T03:35:20.632Z,9.13
2023-04-12T03:38:23.625Z,9.15
2023-04-12T03:41:26.165Z,8.82
2023-04-12T03:44:28.066Z,9.01
2023-04-12T03:47:33.225Z,9.02
2023-04-12T03:50:44.235Z,9.03
2023-04-12T03:53:51.741Z,9.00
2023-04-12T03:56:54.534Z,8.98
2023-04-12T04:00:02.948Z,8.98
2023-04-12T04:03:20.230Z,8.69
2023-04-12T04:06:31.085Z,8.91
2023-04-12T04:09:33.834Z,8.68
2023-04-12T04:12:35.717Z,8.87
2023-04-12T04:15:38.252Z,8.84
2023-04-12T04:18:40.057Z,8.85
2023-04-12T04:21:45.219Z,8.92
2023-04-12T04:24:48.434Z,8.93
2023-04-12T04:27:51.124Z,8.84
2023-04-12T04:30:56.937Z,8.88
2023-04-12T04:33:59.643Z,8.92
2023-04-12T04:37:05.324Z,8.89
2023-04-12T04:40:11.831Z,8.99
2023-04-12T04:43:15.083Z,8.92
2023-04-12T04:46:22.155Z,9.07
2023-04-12T04:49:24.248Z,9.07
2023-04-12T04:52:26.257Z,9.14
2023-04-12T04:55:33.342Z,9.14
2023-04-12T04:58:38.756Z,9.23
2023-04-12T05:01:43.257Z,9.65
2023-04-12T05:04:45.383Z,9.61
2023-04-12T05:07:50.106Z,9.73
2023-04-12T05:10:53.281Z,10.29
2023-04-12T05:13:57.382Z,11.06
2023-04-12T05:17:00.858Z,11.52
2023-04-12T05:20:03.003Z,11.82
2023-04-12T05:23:04.741Z,12.40
2023-04-12T05:26:06.881Z,12.65
2023-04-12T05:29:11.410Z,12.56
2023-04-12T05:32:15.070Z,12.45
2023-04-12T05:35:22.418Z,12.57
2023-04-12T05:38:27.680Z,12.83
2023-04-12T05:41:32.507Z,12.55
2023-04-12T05:44:39.273Z,12.02
2023-04-12T05:47:44.617Z,12.03
2023-04-12T05:50:53.881Z,12.43
2023-04-12T05:53:57.565Z,12.69
2023-04-12T05:57:02.308Z,13.10
2023-04-12T06:00:18.694Z,13.32
2023-04-12T06:03:23.720Z,13.23
2023-04-12T06:06:30.273Z,13.56
2023-04-12T06:09:33.314Z,13.68
2023-04-12T06:12:35.500Z,13.88
2023-04-12T06:15:37.368Z,14.10
2023-04-12T06:18:39.159Z,14.39
2023-04-12T06:21:41.219Z,14.36
2023-04-12T06:24:44.137Z,14.51
2023-04-12T06:27:46.927Z,14.64
2023-04-12T06:30:51.373Z,14.79
2023-04-12T06:33:53.296Z,14.65
2023-04-12T06:36:55.191Z,14.72
2023-04-12T06:39:57.021Z,14.77
2023-04-12T06:42:58.884Z,14.95
2023-04-12T06:46:03.047Z,15.12
2023-04-12T06:49:05.030Z,15.15
2023-04-12T06:52:06.756Z,14.78
2023-04-12T06:55:09.431Z,15.18
2023-04-12T06:58:11.528Z,15.10
2023-04-12T07:01:15.991Z,15.36
2023-04-12T07:04:18.027Z,15.37
2023-04-12T07:07:21.118Z,15.02
2023-04-12T07:10:22.987Z,14.53
2023-04-12T07:13:24.824Z,14.74
2023-04-12T07:16:26.552Z,14.99
2023-04-12T07:19:29.820Z,14.77
2023-04-12T07:22:31.580Z,14.46
2023-04-12T07:25:33.387Z,14.66
2023-04-12T07:28:39.186Z,14.98
2023-04-12T07:31:41.155Z,15.51
2023-04-12T07:34:42.935Z,15.64
2023-04-12T07:37:46.085Z,15.42
2023-04-12T07:40:50.061Z,15.27
2023-04-12T07:43:52.273Z,15.40
2023-04-12T07:46:55.317Z,15.51
2023-04-12T07:49:57.674Z,15.36
2023-04-12T07:53:19.171Z,15.47
2023-04-12T07:56:21.262Z,15.07
2023-04-12T07:59:23.037Z,14.88
2023-04-12T08:02:25.219Z,15.12
2023-04-12T08:05:27.159Z,15.49
2023-04-12T08:08:28.900Z,15.59
2023-04-12T08:11:30.687Z,16.36
2023-04-12T08:14:33.242Z,16.52
2023-04-12T08:17:35.157Z,16.74
2023-04-12T08:20:37.321Z,16.88
2023-04-12T08:23:39.375Z,17.08
2023-04-12T08:26:41.609Z,17.06
2023-04-12T08:29:43.352Z,17.26
2023-04-12T08:32:45.337Z,17.20
2023-04-12T08:35:47.307Z,17.51
2023-04-12T08:38:52.553Z,17.58
2023-04-12T08:41:56.639Z,17.50
2023-04-12T08:44:58.549Z,17.67
2023-04-12T08:48:03.977Z,17.64
2023-04-12T08:51:07.199Z,17.60
2023-04-12T08:54:08.992Z,17.77
2023-04-12T08:57:12.166Z,17.76
2023-04-12T09:00:15.909Z,17.88
2023-04-12T09:03:17.892Z,18.08
2023-04-12T09:06:20.090Z,18.17
2023-04-12T09:09:47.560Z,18.13
2023-04-12T09:12:50.923Z,17.97
2023-04-12T09:15:54.117Z,17.94
2023-04-12T09:18:56.620Z,18.05
2023-04-12T09:21:58.807Z,18.24
2023-04-12T09:25:01.052Z,18.30
2023-04-12T09:28:05.247Z,18.34
2023-04-12T09:31:16.294Z,18.43
2023-04-12T09:34:18.358Z,18.55
2023-04-12T09:37:20.094Z,18.49
2023-04-12T09:40:24.770Z,18.71
2023-04-12T09:43:40.744Z,18.34
2023-04-12T09:47:05.196Z,19.07
2023-04-12T09:50:08.612Z,19.11
2023-04-12T09:53:18.652Z,18.89
2023-04-12T09:56:23.019Z,18.80
2023-04-12T09:59:27.627Z,18.63
2023-04-12T10:02:32.496Z,18.54
2023-04-12T10:05:36.649Z,18.28
2023-04-12T10:08:39.236Z,18.40
2023-04-12T10:11:44.994Z,18.37
2023-04-12T10:14:49.890Z,18.34
2023-04-12T10:17:53.177Z,18.36
2023-04-12T10:20:55.711Z,18.93
2023-04-12T10:23:58.304Z,19.00
2023-04-12T10:27:04.450Z,18.72
2023-04-12T10:30:19.979Z,18.66
2023-04-12T10:33:27.697Z,18.42
2023-04-12T10:36:52.462Z,17.90
2023-04-12T10:39:55.035Z,17.74
2023-04-12T10:43:24.975Z,17.72
2023-04-12T10:46:39.509Z,18.08
2023-04-12T10:50:22.618Z,18.43
2023-04-12T10:53:25.427Z,18.39
2023-04-12T10:56:33.173Z,18.34
2023-04-12T10:59:51.081Z,18.40
2023-04-12T11:03:12.527Z,18.27
2023-04-12T11:09:43.429Z,17.86
2023-04-12T11:12:52.597Z,17.64
2023-04-12T11:16:01.462Z,17.30
2023-04-12T11:19:03.381Z,17.56
2023-04-12T11:22:06.624Z,17.14
2023-04-12T11:25:08.892Z,17.59
2023-04-12T11:28:27.984Z,17.89
2023-04-12T11:31:31.701Z,18.04
2023-04-12T11:34:34.880Z,18.10
2023-04-12T11:37:37.861Z,17.96
2023-04-12T11:40:39.610Z,18.21
2023-04-12T11:43:41.697Z,18.22
2023-04-12T11:46:44.196Z,18.19
2023-04-12T11:49:57.113Z,18.06
2023-04-12T11:53:11.340Z,18.08
2023-04-12T11:56:13.065Z,18.13
2023-04-12T11:59:14.797Z,18.24
2023-04-12T12:02:23.799Z,18.06
2023-04-12T12:05:28.052Z,18.15
2023-04-12T12:08:30.096Z,18.08
2023-04-12T12:11:36.051Z,18.16
2023-04-12T12:14:38.170Z,18.12
2023-04-12T12:17:39.930Z,18.04
2023-04-12T12:20:50.206Z,18.00
2023-04-12T12:23:52.067Z,17.91
2023-04-12T12:26:54.861Z,17.68
2023-04-12T12:30:01.748Z,17.54
2023-04-12T12:33:03.767Z,17.45
2023-04-12T12:36:06.809Z,17.47
2023-04-12T12:39:11.242Z,17.50
2023-04-12T12:42:13.497Z,17.27
2023-04-12T12:45:16.753Z,17.15
2023-04-12T12:48:21.098Z,17.47
2023-04-12T12:51:22.976Z,17.57
2023-04-12T12:54:39.541Z,17.51
2023-04-12T12:57:45.246Z,17.46
2023-04-12T13:00:49.781Z,17.26
2023-04-12T13:03:53.522Z,17.08
2023-04-12T13:06:55.808Z,16.99
2023-04-12T13:10:05.106Z,16.93
2023-04-12T13:13:07.235Z,16.96
2023-04-12T13:16:09.860Z,17.06
2023-04-12T13:19:11.718Z,17.13
2023-04-12T13:22:17.668Z,17.20
2023-04-12T13:25:20.115Z,17.22
2023-04-12T13:28:22.011Z,17.25
2023-04-12T13:31:23.811Z,17.21
2023-04-12T13:34:25.991Z,17.19
2023-04-12T13:37:27.834Z,17.25
2023-04-12T13:40:29.994Z,17.23
2023-04-12T13:43:31.931Z,17.01
2023-04-12T13:46:33.870Z,17.32
2023-04-12T13:49:36.014Z,17.38
2023-04-12T13:52:40.497Z,17.37
2023-04-12T13:55:42.252Z,17.44
2023-04-12T13:58:44.184Z,17.56
2023-04-12T14:01:46.511Z,17.88
2023-04-12T14:04:53.651Z,17.94
2023-04-12T14:07:55.935Z,17.84
2023-04-12T14:10:57.747Z,17.82
2023-04-12T14:13:59.455Z,17.72
2023-04-12T14:17:02.102Z,17.92
2023-04-12T14:20:06.870Z,17.88
2023-04-12T14:23:08.586Z,17.69
2023-04-12T14:26:15.936Z,17.63
2023-04-12T14:29:18.195Z,17.52
2023-04-12T14:32:19.968Z,17.52
2023-04-12T14:35:21.837Z,17.38
2023-04-12T14:38:23.842Z,17.24
2023-04-12T14:41:25.892Z,17.39
2023-04-12T14:44:30.050Z,17.32
2023-04-12T14:47:33.093Z,17.53
2023-04-12T14:50:34.849Z,17.24
2023-04-12T14:53:36.740Z,17.24
2023-04-12T14:56:46.341Z,17.06
2023-04-12T14:59:50.789Z,17.12
2023-04-12T15:02:53.061Z,16.99
2023-04-12T15:05:55.010Z,17.07
2023-04-12T15:08:57.503Z,16.93
2023-04-12T15:12:02.195Z,16.83
2023-04-12T15:15:06.293Z,16.78
2023-04-12T15:18:08.870Z,16.70
2023-04-12T15:21:12.051Z,16.59
2023-04-12T15:24:13.768Z,16.48
2023-04-12T15:27:15.643Z,15.94
2023-04-12T15:30:17.952Z,16.37
2023-04-12T15:33:21.418Z,16.37
2023-04-12T15:36:34.400Z,16.32
2023-04-12T15:39:36.584Z,16.32
2023-04-12T15:42:38.261Z,16.12
2023-04-12T15:45:41.760Z,16.00
2023-04-12T15:48:43.675Z,15.80
2023-04-12T15:51:45.441Z,15.80
2023-04-12T15:54:47.133Z,15.49
2023-04-12T15:57:48.890Z,15.67
2023-04-12T16:00:53.024Z,15.55
2023-04-12T16:03:55.768Z,15.06
2023-04-12T16:07:02.049Z,15.13
2023-04-12T16:10:06.303Z,15.00
2023-04-12T16:13:10.194Z,14.81
2023-04-12T16:16:13.888Z,14.62
2023-04-12T16:19:16.863Z,14.52
2023-04-12T16:22:18.749Z,14.24
2023-04-12T16:25:23.519Z,14.34
2023-04-12T16:28:26.428Z,14.31
2023-04-12T16:31:28.200Z,14.19
2023-04-12T16:34:30.678Z,14.20
2023-04-12T16:37:32.494Z,14.16
2023-04-12T16:40:34.223Z,14.15
2023-04-12T16:43:36.424Z,14.16
2023-04-12T16:46:38.308Z,14.11
2023-04-12T16:49:40.149Z,14.05
2023-04-12T16:52:42.102Z,14.04
2023-04-12T16:55:46.645Z,14.00
2023-04-12T16:58:49.063Z,13.92
2023-04-12T17:01:50.934Z,13.87
2023-04-12T17:04:54.654Z,13.85
2023-04-12T17:07:57.502Z,13.87
2023-04-12T17:10:59.676Z,13.81
2023-04-12T17:14:01.548Z,13.78
2023-04-12T17:17:05.027Z,13.79
2023-04-12T17:20:12.502Z,13.66
2023-04-12T17:23:15.740Z,13.67
2023-04-12T17:26:19.083Z,13.64
2023-04-12T17:29:20.920Z,13.65
2023-04-12T17:32:22.820Z,13.67
2023-04-12T17:35:24.708Z,13.62
2023-04-12T17:38:27.850Z,13.23
2023-04-12T17:41:29.575Z,13.48
2023-04-12T17:44:32.388Z,13.42
2023-04-12T17:47:34.809Z,13.41
2023-04-12T17:50:36.591Z,13.35
2023-04-12T17:53:38.320Z,13.30
2023-04-12T17:56:39.978Z,13.31
2023-04-12T17:59:42.127Z,13.00
2023-04-12T18:02:43.906Z,13.13
2023-04-12T18:05:46.392Z,13.01
2023-04-12T18:08:48.150Z,12.95
2023-04-12T18:11:50.119Z,12.63
2023-04-12T18:14:51.818Z,12.75
2023-04-12T18:17:55.675Z,12.67
2023-04-12T18:20:57.605Z,12.57
2023-04-12T18:24:02.324Z,12.54
2023-04-12T18:27:05.412Z,12.44
2023-04-12T18:30:08.371Z,12.44
2023-04-12T18:33:10.444Z,12.39
2023-04-12T18:36:12.757Z,12.25
2023-04-12T18:39:16.432Z,12.40
2023-04-12T18:42:18.067Z,12.24
2023-04-12T18:45:21.285Z,12.33
2023-04-12T18:48:28.418Z,12.32
2023-04-12T18:51:31.845Z,12.03
2023-04-12T18:54:33.587Z,11.95
2023-04-12T18:57:36.745Z,11.97
2023-04-12T19:00:41.796Z,12.14
2023-04-12T19:03:48.231Z,11.89
2023-04-12T19:06:55.522Z,12.14
2023-04-12T19:15:15.392Z,12.17
2023-04-12T19:26:10.582Z,11.26
2023-04-12T19:41:05.096Z,11.31
2023-04-12T19:44:27.343Z,10.86
2023-04-12T19:47:29.117Z,11.70
2023-04-12T19:50:36.221Z,11.63
2023-04-12T19:53:39.026Z,11.53
2023-04-12T19:56:44.023Z,11.28
2023-04-12T19:59:45.727Z,11.38
2023-04-12T20:02:49.456Z,11.45
2023-04-12T20:05:51.637Z,11.48
2023-04-12T20:08:53.807Z,11.37
2023-04-12T20:11:56.625Z,11.36
2023-04-12T20:15:00.515Z,11.37
2023-04-12T20:18:02.372Z,11.20
2023-04-12T20:21:09.920Z,10.59
2023-04-12T20:24:12.460Z,10.97
2023-04-12T20:27:17.504Z,10.90
2023-04-12T20:30:21.532Z,10.73
2023-04-12T20:33:23.189Z,10.61
2023-04-12T20:36:26.965Z,10.35
2023-04-12T20:39:29.644Z,10.45
2023-04-12T20:42:31.450Z,10.43
2023-04-12T20:45:34.786Z,10.32
2023-04-12T20:48:38.490Z,10.25
2023-04-12T20:51:40.299Z,10.15
2023-04-12T20:54:42.113Z,10.00
2023-04-12T20:57:45.307Z,10.05
2023-04-12T21:00:47.681Z,10.06
2023-04-12T21:07:19.619Z,9.81
2023-04-12T21:10:22.632Z,9.82
2023-04-12T21:13:26.655Z,9.75
2023-04-12T21:16:28.418Z,9.71
2023-04-12T21:19:30.822Z,9.55
2023-04-12T21:22:35.864Z,9.54
2023-04-12T21:25:37.684Z,9.52
2023-04-12T21:28:39.530Z,9.56
2023-04-12T21:31:41.748Z,9.20
2023-04-12T21:34:47.518Z,9.38
2023-04-12T21:38:05.099Z,9.40
2023-04-12T21:41:11.280Z,9.47
2023-04-12T21:44:13.336Z,9.37
2023-04-12T21:47:17.542Z,9.09
2023-04-12T21:50:19.383Z,8.97
2023-04-12T21:53:22.883Z,9.15
2023-04-12T21:56:29.312Z,9.11
2023-04-12T21:59:31.185Z,8.96
2023-04-12T22:02:37.389Z,8.75
2023-04-12T22:05:40.010Z,8.89
2023-04-12T22:09:30.660Z,8.82
2023-04-12T22:12:07.702Z,8.85
2023-04-12T22:15:11.970Z,8.69
2023-04-12T22:18:16.799Z,8.98
2023-04-12T22:21:18.591Z,8.89
2023-04-12T22:24:21.549Z,8.81
2023-04-12T22:27:26.474Z,8.61
2023-04-12T22:30:30.578Z,8.70
2023-04-12T22:33:32.401Z,8.61
2023-04-12T22:36:39.112Z,8.86
2023-04-12T22:39:42.906Z,8.80
2023-04-12T22:42:47.666Z,8.83
2023-04-12T22:45:49.418Z,8.82
2023-04-12T22:48:51.144Z,8.41
2023-04-12T22:51:52.946Z,8.60
2023-04-12T22:54:54.977Z,8.58
2023-04-12T22:57:57.121Z,8.35
2023-04-12T23:00:58.951Z,8.42
2023-04-12T23:04:03.128Z,8.49
2023-04-12T23:07:04.949Z,8.51
2023-04-12T23:10:08.249Z,8.54
2023-04-12T23:13:13.829Z,8.47
2023-04-12T23:16:16.400Z,8.49
2023-04-12T23:19:19.141Z,8.33
2023-04-12T23:22:55.866Z,8.43
2023-04-12T23:25:59.600Z,8.33
2023-04-12T23:29:03.631Z,8.20
2023-04-12T23:32:05.671Z,8.13
2023-04-12T23:35:07.787Z,8.19
2023-04-12T23:38:11.045Z,8.19
2023-04-12T23:41:12.916Z,8.02
2023-04-12T23:44:15.139Z,7.54
2023-04-12T23:47:16.836Z,8.00
2023-04-12T23:50:18.646Z,7.89
2023-04-12T23:53:21.528Z,8.02
2023-04-12T23:56:23.280Z,7.84
2023-04-12T23:59:27.056Z,7.89
